sensor_id;sensor_type;location;lat;lon;timestamp;P1;durP1;ratioP1;P2;durP2;ratioP2
66721;SDS011;53633;49.932;10.884;2023-04-03T00:00:36;4.97;;;1.60;;
66721;SDS011;53633;49.932;10.884;2023-04-03T00:03:03;7.35;;;1.80;;
66721;SDS011;53633;49.932;10.884;2023-04-03T00:05:30;9.18;;;1.42;;
66721;SDS011;53633;49.932;10.884;2023-04-03T00:07:57;6.10;;;1.60;;
66721;SDS011;53633;49.932;10.884;2023-04-03T00:10:23;7.25;;;1.65;;
66721;SDS011;53633;49.932;10.884;2023-04-03T00:12:50;5.30;;;1.60;;
66721;SDS011;53633;49.932;10.884;2023-04-03T00:15:18;6.50;;;1.40;;
66721;SDS011;53633;49.932;10.884;2023-04-03T00:17:44;5.88;;;1.83;;
66721;SDS011;53633;49.932;10.884;2023-04-03T00:20:11;6.82;;;1.83;;
66721;SDS011;53633;49.932;10.884;2023-04-03T00:22:38;6.10;;;1.58;;
66721;SDS011;53633;49.932;10.884;2023-04-03T00:25:05;10.47;;;1.90;;
66721;SDS011;53633;49.932;10.884;2023-04-03T00:27:33;5.22;;;1.45;;
66721;SDS011;53633;49.932;10.884;2023-04-03T00:30:02;5.38;;;1.50;;
66721;SDS011;53633;49.932;10.884;2023-04-03T00:32:30;4.57;;;1.50;;
66721;SDS011;53633;49.932;10.884;2023-04-03T00:34:57;5.68;;;1.40;;
66721;SDS011;53633;49.932;10.884;2023-04-03T00:37:24;5.33;;;1.77;;
66721;SDS011;53633;49.932;10.884;2023-04-03T00:39:50;6.93;;;1.50;;
66721;SDS011;53633;49.932;10.884;2023-04-03T00:42:17;6.07;;;1.50;;
66721;SDS011;53633;49.932;10.884;2023-04-03T00:47:55;6.35;;;1.45;;
66721;SDS011;53633;49.932;10.884;2023-04-03T00:50:23;5.47;;;1.70;;
66721;SDS011;53633;49.932;10.884;2023-04-03T00:52:49;5.18;;;1.55;;
66721;SDS011;53633;49.932;10.884;2023-04-03T00:55:17;6.85;;;1.88;;
66721;SDS011;53633;49.932;10.884;2023-04-03T00:57:44;5.45;;;1.60;;
66721;SDS011;53633;49.932;10.884;2023-04-03T01:00:12;7.15;;;2.00;;
66721;SDS011;53633;49.932;10.884;2023-04-03T01:02:43;7.33;;;2.27;;
66721;SDS011;53633;49.932;10.884;2023-04-03T01:05:11;6.50;;;1.75;;
66721;SDS011;53633;49.932;10.884;2023-04-03T01:07:39;7.10;;;1.73;;
66721;SDS011;53633;49.932;10.884;2023-04-03T01:10:07;6.50;;;1.65;;
66721;SDS011;53633;49.932;10.884;2023-04-03T01:12:36;5.88;;;2.20;;
66721;SDS011;53633;49.932;10.884;2023-04-03T01:15:08;7.27;;;2.20;;
66721;SDS011;53633;49.932;10.884;2023-04-03T01:17:38;5.13;;;1.80;;
66721;SDS011;53633;49.932;10.884;2023-04-03T01:23:24;5.00;;;1.50;;
66721;SDS011;53633;49.932;10.884;2023-04-03T01:25:56;7.20;;;2.08;;
66721;SDS011;53633;49.932;10.884;2023-04-03T01:28:24;6.40;;;2.10;;
66721;SDS011;53633;49.932;10.884;2023-04-03T01:30:53;6.25;;;2.00;;
66721;SDS011;53633;49.932;10.884;2023-04-03T01:33:30;6.88;;;2.38;;
66721;SDS011;53633;49.932;10.884;2023-04-03T01:35:56;6.18;;;2.05;;
66721;SDS011;53633;49.932;10.884;2023-04-03T01:38:23;6.10;;;2.10;;
66721;SDS011;53633;49.932;10.884;2023-04-03T01:40:50;5.80;;;1.90;;
66721;SDS011;53633;49.932;10.884;2023-04-03T01:43:17;6.03;;;1.80;;
66721;SDS011;53633;49.932;10.884;2023-04-03T01:45:43;10.30;;;2.20;;
66721;SDS011;53633;49.932;10.884;2023-04-03T01:48:10;7.40;;;2.28;;
66721;SDS011;53633;49.932;10.884;2023-04-03T01:50:38;6.78;;;2.10;;
66721;SDS011;53633;49.932;10.884;2023-04-03T01:53:05;6.70;;;2.00;;
66721;SDS011;53633;49.932;10.884;2023-04-03T01:55:31;6.65;;;2.15;;
66721;SDS011;53633;49.932;10.884;2023-04-03T01:57:58;6.03;;;1.90;;
66721;SDS011;53633;49.932;10.884;2023-04-03T02:00:25;5.25;;;1.75;;
66721;SDS011;53633;49.932;10.884;2023-04-03T02:02:51;6.53;;;1.83;;
66721;SDS011;53633;49.932;10.884;2023-04-03T02:05:18;5.37;;;1.87;;
66721;SDS011;53633;49.932;10.884;2023-04-03T02:07:46;5.70;;;2.17;;
66721;SDS011;53633;49.932;10.884;2023-04-03T02:10:13;5.40;;;1.70;;
66721;SDS011;53633;49.932;10.884;2023-04-03T02:12:39;7.50;;;1.90;;
66721;SDS011;53633;49.932;10.884;2023-04-03T02:15:06;6.40;;;2.13;;
66721;SDS011;53633;49.932;10.884;2023-04-03T02:17:34;6.40;;;1.83;;
66721;SDS011;53633;49.932;10.884;2023-04-03T02:20:01;5.88;;;1.85;;
66721;SDS011;53633;49.932;10.884;2023-04-03T02:22:28;6.05;;;2.10;;
66721;SDS011;53633;49.932;10.884;2023-04-03T02:24:56;6.35;;;2.05;;
66721;SDS011;53633;49.932;10.884;2023-04-03T02:27:23;6.25;;;2.15;;
66721;SDS011;53633;49.932;10.884;2023-04-03T02:29:50;6.30;;;1.90;;
66721;SDS011;53633;49.932;10.884;2023-04-03T02:32:16;5.65;;;2.00;;
66721;SDS011;53633;49.932;10.884;2023-04-03T02:34:43;5.35;;;1.60;;
66721;SDS011;53633;49.932;10.884;2023-04-03T02:37:10;4.85;;;1.70;;
66721;SDS011;53633;49.932;10.884;2023-04-03T02:39:36;6.65;;;2.10;;
66721;SDS011;53633;49.932;10.884;2023-04-03T02:42:05;9.17;;;2.37;;
66721;SDS011;53633;49.932;10.884;2023-04-03T02:44:31;8.00;;;1.90;;
66721;SDS011;53633;49.932;10.884;2023-04-03T02:46:58;5.43;;;2.08;;
66721;SDS011;53633;49.932;10.884;2023-04-03T02:49:24;6.00;;;2.03;;
66721;SDS011;53633;49.932;10.884;2023-04-03T02:51:51;5.38;;;2.10;;
66721;SDS011;53633;49.932;10.884;2023-04-03T02:54:18;7.67;;;2.20;;
66721;SDS011;53633;49.932;10.884;2023-04-03T02:56:44;9.68;;;2.28;;
66721;SDS011;53633;49.932;10.884;2023-04-03T02:59:12;6.07;;;2.42;;
66721;SDS011;53633;49.932;10.884;2023-04-03T03:01:39;6.45;;;1.90;;
66721;SDS011;53633;49.932;10.884;2023-04-03T03:04:06;4.95;;;1.80;;
66721;SDS011;53633;49.932;10.884;2023-04-03T03:06:33;7.50;;;2.13;;
66721;SDS011;53633;49.932;10.884;2023-04-03T03:08:59;6.70;;;2.30;;
66721;SDS011;53633;49.932;10.884;2023-04-03T03:11:26;7.35;;;2.40;;
66721;SDS011;53633;49.932;10.884;2023-04-03T03:13:53;9.68;;;2.47;;
66721;SDS011;53633;49.932;10.884;2023-04-03T03:16:21;7.13;;;2.28;;
66721;SDS011;53633;49.932;10.884;2023-04-03T03:18:48;5.97;;;2.40;;
66721;SDS011;53633;49.932;10.884;2023-04-03T03:21:14;8.68;;;2.22;;
66721;SDS011;53633;49.932;10.884;2023-04-03T03:23:41;7.38;;;2.47;;
66721;SDS011;53633;49.932;10.884;2023-04-03T03:26:08;8.90;;;2.20;;
66721;SDS011;53633;49.932;10.884;2023-04-03T03:28:36;6.70;;;2.30;;
66721;SDS011;53633;49.932;10.884;2023-04-03T03:31:05;7.37;;;2.17;;
66721;SDS011;53633;49.932;10.884;2023-04-03T03:33:34;9.45;;;2.15;;
66721;SDS011;53633;49.932;10.884;2023-04-03T03:36:00;7.80;;;2.35;;
66721;SDS011;53633;49.932;10.884;2023-04-03T03:38:27;5.50;;;1.90;;
66721;SDS011;53633;49.932;10.884;2023-04-03T03:40:54;8.57;;;2.45;;
66721;SDS011;53633;49.932;10.884;2023-04-03T03:43:20;6.97;;;2.27;;
66721;SDS011;53633;49.932;10.884;2023-04-03T03:45:49;10.05;;;2.47;;
66721;SDS011;53633;49.932;10.884;2023-04-03T03:48:17;9.52;;;2.47;;
66721;SDS011;53633;49.932;10.884;2023-04-03T03:50:46;7.05;;;2.05;;
66721;SDS011;53633;49.932;10.884;2023-04-03T03:53:12;6.45;;;2.22;;
66721;SDS011;53633;49.932;10.884;2023-04-03T03:55:39;7.53;;;2.07;;
66721;SDS011;53633;49.932;10.884;2023-04-03T03:58:06;7.38;;;2.17;;
66721;SDS011;53633;49.932;10.884;2023-04-03T04:00:32;6.82;;;2.53;;
66721;SDS011;53633;49.932;10.884;2023-04-03T04:02:59;7.60;;;2.42;;
66721;SDS011;53633;49.932;10.884;2023-04-03T04:05:26;7.55;;;2.28;;
66721;SDS011;53633;49.932;10.884;2023-04-03T04:07:54;7.27;;;2.20;;
66721;SDS011;53633;49.932;10.884;2023-04-03T04:10:20;6.13;;;2.22;;
66721;SDS011;53633;49.932;10.884;2023-04-03T04:12:47;5.55;;;1.83;;
66721;SDS011;53633;49.932;10.884;2023-04-03T04:15:14;7.82;;;2.42;;
66721;SDS011;53633;49.932;10.884;2023-04-03T04:17:40;5.78;;;2.35;;
66721;SDS011;53633;49.932;10.884;2023-04-03T04:20:07;7.07;;;1.97;;
66721;SDS011;53633;49.932;10.884;2023-04-03T04:22:34;7.25;;;2.00;;
66721;SDS011;53633;49.932;10.884;2023-04-03T04:25:03;9.60;;;2.53;;
66721;SDS011;53633;49.932;10.884;2023-04-03T04:27:30;7.15;;;1.70;;
66721;SDS011;53633;49.932;10.884;2023-04-03T04:29:56;5.38;;;1.95;;
66721;SDS011;53633;49.932;10.884;2023-04-03T04:32:24;7.13;;;2.07;;
66721;SDS011;53633;49.932;10.884;2023-04-03T04:34:51;6.72;;;1.63;;
66721;SDS011;53633;49.932;10.884;2023-04-03T04:37:18;6.95;;;1.80;;
66721;SDS011;53633;49.932;10.884;2023-04-03T04:39:44;7.60;;;2.03;;
66721;SDS011;53633;49.932;10.884;2023-04-03T04:42:12;8.93;;;1.73;;
66721;SDS011;53633;49.932;10.884;2023-04-03T04:44:43;6.93;;;2.17;;
66721;SDS011;53633;49.932;10.884;2023-04-03T04:47:10;7.95;;;2.40;;
66721;SDS011;53633;49.932;10.884;2023-04-03T04:49:36;6.90;;;1.92;;
66721;SDS011;53633;49.932;10.884;2023-04-03T04:52:03;8.45;;;2.08;;
66721;SDS011;53633;49.932;10.884;2023-04-03T04:54:30;6.47;;;1.52;;
66721;SDS011;53633;49.932;10.884;2023-04-03T04:56:56;7.43;;;1.80;;
66721;SDS011;53633;49.932;10.884;2023-04-03T04:59:24;6.22;;;1.92;;
66721;SDS011;53633;49.932;10.884;2023-04-03T05:01:51;5.82;;;1.67;;
66721;SDS011;53633;49.932;10.884;2023-04-03T05:04:18;6.47;;;1.88;;
66721;SDS011;53633;49.932;10.884;2023-04-03T05:06:44;7.47;;;1.80;;
66721;SDS011;53633;49.932;10.884;2023-04-03T05:09:11;5.87;;;1.97;;
66721;SDS011;53633;49.932;10.884;2023-04-03T05:11:38;5.85;;;1.98;;
66721;SDS011;53633;49.932;10.884;2023-04-03T05:14:04;7.75;;;2.05;;
66721;SDS011;53633;49.932;10.884;2023-04-03T05:16:33;7.78;;;2.05;;
66721;SDS011;53633;49.932;10.884;2023-04-03T05:19:00;6.90;;;1.80;;
66721;SDS011;53633;49.932;10.884;2023-04-03T05:21:27;5.87;;;2.03;;
66721;SDS011;53633;49.932;10.884;2023-04-03T05:23:53;8.55;;;2.33;;
66721;SDS011;53633;49.932;10.884;2023-04-03T05:26:20;9.40;;;2.45;;
66721;SDS011;53633;49.932;10.884;2023-04-03T05:28:47;7.82;;;2.17;;
66721;SDS011;53633;49.932;10.884;2023-04-03T05:31:13;11.48;;;2.47;;
66721;SDS011;53633;49.932;10.884;2023-04-03T05:33:41;6.90;;;2.33;;
66721;SDS011;53633;49.932;10.884;2023-04-03T05:36:08;6.57;;;2.10;;
66721;SDS011;53633;49.932;10.884;2023-04-03T05:38:35;8.10;;;2.10;;
66721;SDS011;53633;49.932;10.884;2023-04-03T05:41:02;7.22;;;1.88;;
66721;SDS011;53633;49.932;10.884;2023-04-03T05:43:31;5.85;;;1.67;;
66721;SDS011;53633;49.932;10.884;2023-04-03T05:45:57;6.03;;;1.80;;
66721;SDS011;53633;49.932;10.884;2023-04-03T05:48:24;8.32;;;1.90;;
66721;SDS011;53633;49.932;10.884;2023-04-03T05:50:52;9.60;;;1.75;;
66721;SDS011;53633;49.932;10.884;2023-04-03T05:53:23;6.22;;;2.28;;
66721;SDS011;53633;49.932;10.884;2023-04-03T05:55:52;7.30;;;1.88;;
66721;SDS011;53633;49.932;10.884;2023-04-03T05:58:19;6.77;;;1.50;;
66721;SDS011;53633;49.932;10.884;2023-04-03T06:00:46;7.63;;;2.08;;
66721;SDS011;53633;49.932;10.884;2023-04-03T06:03:12;8.88;;;2.15;;
66721;SDS011;53633;49.932;10.884;2023-04-03T06:05:39;8.00;;;1.65;;
66721;SDS011;53633;49.932;10.884;2023-04-03T06:08:07;7.47;;;1.70;;
66721;SDS011;53633;49.932;10.884;2023-04-03T06:10:34;12.73;;;2.60;;
66721;SDS011;53633;49.932;10.884;2023-04-03T06:13:01;7.20;;;1.98;;
66721;SDS011;53633;49.932;10.884;2023-04-03T06:15:28;7.40;;;2.00;;
66721;SDS011;53633;49.932;10.884;2023-04-03T06:17:55;7.05;;;2.08;;
66721;SDS011;53633;49.932;10.884;2023-04-03T06:20:21;5.93;;;1.60;;
66721;SDS011;53633;49.932;10.884;2023-04-03T06:22:48;6.90;;;1.90;;
66721;SDS011;53633;49.932;10.884;2023-04-03T06:25:16;5.13;;;1.52;;
66721;SDS011;53633;49.932;10.884;2023-04-03T06:27:43;5.32;;;1.63;;
66721;SDS011;53633;49.932;10.884;2023-04-03T06:30:10;6.13;;;1.70;;
66721;SDS011;53633;49.932;10.884;2023-04-03T06:32:37;7.70;;;2.42;;
66721;SDS011;53633;49.932;10.884;2023-04-03T06:35:04;7.67;;;2.00;;
66721;SDS011;53633;49.932;10.884;2023-04-03T06:37:32;6.70;;;2.00;;
66721;SDS011;53633;49.932;10.884;2023-04-03T06:39:59;6.47;;;1.60;;
66721;SDS011;53633;49.932;10.884;2023-04-03T06:42:27;5.88;;;1.73;;
66721;SDS011;53633;49.932;10.884;2023-04-03T06:44:53;6.15;;;1.67;;
66721;SDS011;53633;49.932;10.884;2023-04-03T06:47:20;8.27;;;1.97;;
66721;SDS011;53633;49.932;10.884;2023-04-03T06:49:47;5.03;;;1.60;;
66721;SDS011;53633;49.932;10.884;2023-04-03T06:52:13;7.05;;;1.90;;
66721;SDS011;53633;49.932;10.884;2023-04-03T06:54:40;7.40;;;1.58;;
66721;SDS011;53633;49.932;10.884;2023-04-03T06:57:07;8.13;;;1.90;;
66721;SDS011;53633;49.932;10.884;2023-04-03T06:59:36;7.20;;;1.80;;
66721;SDS011;53633;49.932;10.884;2023-04-03T07:02:03;6.90;;;2.42;;
66721;SDS011;53633;49.932;10.884;2023-04-03T07:04:30;8.90;;;2.17;;
66721;SDS011;53633;49.932;10.884;2023-04-03T07:06:57;5.72;;;1.55;;
66721;SDS011;53633;49.932;10.884;2023-04-03T07:09:23;5.13;;;1.70;;
66721;SDS011;53633;49.932;10.884;2023-04-03T07:11:50;7.13;;;2.00;;
66721;SDS011;53633;49.932;10.884;2023-04-03T07:14:16;6.32;;;1.83;;
66721;SDS011;53633;49.932;10.884;2023-04-03T07:16:44;5.38;;;2.20;;
66721;SDS011;53633;49.932;10.884;2023-04-03T07:19:11;5.63;;;1.52;;
66721;SDS011;53633;49.932;10.884;2023-04-03T07:21:38;7.65;;;1.92;;
66721;SDS011;53633;49.932;10.884;2023-04-03T07:24:04;5.80;;;1.77;;
66721;SDS011;53633;49.932;10.884;2023-04-03T07:26:32;6.40;;;2.05;;
66721;SDS011;53633;49.932;10.884;2023-04-03T07:28:58;6.10;;;1.70;;
66721;SDS011;53633;49.932;10.884;2023-04-03T07:31:25;5.95;;;2.00;;
66721;SDS011;53633;49.932;10.884;2023-04-03T07:33:53;7.53;;;2.20;;
66721;SDS011;53633;49.932;10.884;2023-04-03T07:36:20;8.13;;;2.75;;
66721;SDS011;53633;49.932;10.884;2023-04-03T07:38:48;8.13;;;1.80;;
66721;SDS011;53633;49.932;10.884;2023-04-03T07:41:15;6.43;;;3.35;;
66721;SDS011;53633;49.932;10.884;2023-04-03T07:43:44;6.35;;;2.00;;
66721;SDS011;53633;49.932;10.884;2023-04-03T07:46:10;5.80;;;1.98;;
66721;SDS011;53633;49.932;10.884;2023-04-03T07:48:37;5.93;;;2.03;;
66721;SDS011;53633;49.932;10.884;2023-04-03T07:51:05;5.78;;;1.90;;
66721;SDS011;53633;49.932;10.884;2023-04-03T07:53:32;5.43;;;1.85;;
66721;SDS011;53633;49.932;10.884;2023-04-03T07:55:59;6.35;;;1.92;;
66721;SDS011;53633;49.932;10.884;2023-04-03T07:58:26;6.50;;;2.20;;
66721;SDS011;53633;49.932;10.884;2023-04-03T08:00:53;4.72;;;1.95;;
66721;SDS011;53633;49.932;10.884;2023-04-03T08:03:20;6.22;;;1.92;;
66721;SDS011;53633;49.932;10.884;2023-04-03T08:05:47;5.78;;;2.30;;
66721;SDS011;53633;49.932;10.884;2023-04-03T08:08:17;6.20;;;2.50;;
66721;SDS011;53633;49.932;10.884;2023-04-03T08:10:48;4.60;;;1.45;;
66721;SDS011;53633;49.932;10.884;2023-04-03T08:13:15;6.22;;;2.22;;
66721;SDS011;53633;49.932;10.884;2023-04-03T08:15:42;5.15;;;1.60;;
66721;SDS011;53633;49.932;10.884;2023-04-03T08:18:08;5.03;;;1.75;;
66721;SDS011;53633;49.932;10.884;2023-04-03T08:20:35;7.65;;;1.63;;
66721;SDS011;53633;49.932;10.884;2023-04-03T08:23:03;7.47;;;1.65;;
66721;SDS011;53633;49.932;10.884;2023-04-03T08:25:31;7.43;;;2.13;;
66721;SDS011;53633;49.932;10.884;2023-04-03T08:27:58;5.28;;;1.50;;
66721;SDS011;53633;49.932;10.884;2023-04-03T08:30:25;7.07;;;1.88;;
66721;SDS011;53633;49.932;10.884;2023-04-03T08:32:52;4.68;;;1.75;;
66721;SDS011;53633;49.932;10.884;2023-04-03T08:35:19;4.63;;;1.50;;
66721;SDS011;53633;49.932;10.884;2023-04-03T08:37:45;5.88;;;1.65;;
66721;SDS011;53633;49.932;10.884;2023-04-03T08:40:13;4.70;;;1.33;;
66721;SDS011;53633;49.932;10.884;2023-04-03T08:42:46;6.30;;;1.52;;
66721;SDS011;53633;49.932;10.884;2023-04-03T08:45:21;8.00;;;1.65;;
66721;SDS011;53633;49.932;10.884;2023-04-03T08:47:55;5.97;;;1.30;;
66721;SDS011;53633;49.932;10.884;2023-04-03T08:50:28;8.32;;;1.80;;
66721;SDS011;53633;49.932;10.884;2023-04-03T08:52:58;5.55;;;1.35;;
66721;SDS011;53633;49.932;10.884;2023-04-03T08:55:26;5.07;;;1.33;;
66721;SDS011;53633;49.932;10.884;2023-04-03T08:57:57;6.22;;;1.50;;
66721;SDS011;53633;49.932;10.884;2023-04-03T09:00:27;5.60;;;1.20;;
66721;SDS011;53633;49.932;10.884;2023-04-03T09:02:57;5.57;;;1.42;;
66721;SDS011;53633;49.932;10.884;2023-04-03T09:05:28;4.47;;;1.20;;
66721;SDS011;53633;49.932;10.884;2023-04-03T09:08:00;5.22;;;1.30;;
66721;SDS011;53633;49.932;10.884;2023-04-03T09:10:32;5.18;;;1.55;;
66721;SDS011;53633;49.932;10.884;2023-04-03T09:13:03;6.53;;;1.50;;
66721;SDS011;53633;49.932;10.884;2023-04-03T09:15:34;4.50;;;1.25;;
66721;SDS011;53633;49.932;10.884;2023-04-03T09:18:05;4.22;;;1.05;;
66721;SDS011;53633;49.932;10.884;2023-04-03T09:20:41;4.63;;;1.33;;
66721;SDS011;53633;49.932;10.884;2023-04-03T09:23:14;4.32;;;1.20;;
66721;SDS011;53633;49.932;10.884;2023-04-03T09:25:45;4.82;;;1.30;;
66721;SDS011;53633;49.932;10.884;2023-04-03T09:28:13;4.60;;;1.00;;
66721;SDS011;53633;49.932;10.884;2023-04-03T09:30:40;4.47;;;1.17;;
66721;SDS011;53633;49.932;10.884;2023-04-03T09:33:07;6.57;;;1.60;;
66721;SDS011;53633;49.932;10.884;2023-04-03T09:35:35;5.18;;;1.48;;
66721;SDS011;53633;49.932;10.884;2023-04-03T09:38:15;4.70;;;1.20;;
66721;SDS011;53633;49.932;10.884;2023-04-03T09:40:44;5.30;;;1.48;;
66721;SDS011;53633;49.932;10.884;2023-04-03T09:43:27;5.20;;;1.23;;
66721;SDS011;53633;49.932;10.884;2023-04-03T09:45:55;4.07;;;1.40;;
66721;SDS011;53633;49.932;10.884;2023-04-03T09:48:23;4.70;;;1.20;;
66721;SDS011;53633;49.932;10.884;2023-04-03T09:50:56;6.13;;;1.30;;
66721;SDS011;53633;49.932;10.884;2023-04-03T09:53:26;5.00;;;1.25;;
66721;SDS011;53633;49.932;10.884;2023-04-03T09:55:54;5.72;;;1.40;;
66721;SDS011;53633;49.932;10.884;2023-04-03T09:58:23;5.32;;;1.30;;
66721;SDS011;53633;49.932;10.884;2023-04-03T10:01:01;4.82;;;1.30;;
66721;SDS011;53633;49.932;10.884;2023-04-03T10:03:30;4.43;;;1.20;;
66721;SDS011;53633;49.932;10.884;2023-04-03T10:06:00;4.78;;;1.30;;
66721;SDS011;53633;49.932;10.884;2023-04-03T10:08:28;4.55;;;1.23;;
66721;SDS011;53633;49.932;10.884;2023-04-03T10:11:09;6.75;;;1.40;;
66721;SDS011;53633;49.932;10.884;2023-04-03T10:13:52;5.07;;;1.00;;
66721;SDS011;53633;49.932;10.884;2023-04-03T10:16:22;4.35;;;0.93;;
66721;SDS011;53633;49.932;10.884;2023-04-03T10:18:54;4.10;;;0.73;;
66721;SDS011;53633;49.932;10.884;2023-04-03T10:21:32;3.25;;;0.68;;
66721;SDS011;53633;49.932;10.884;2023-04-03T10:24:07;4.13;;;1.10;;
66721;SDS011;53633;49.932;10.884;2023-04-03T10:26:39;3.67;;;0.77;;
66721;SDS011;53633;49.932;10.884;2023-04-03T10:29:16;4.13;;;0.80;;
66721;SDS011;53633;49.932;10.884;2023-04-03T10:31:53;4.20;;;0.90;;
66721;SDS011;53633;49.932;10.884;2023-04-03T10:34:28;3.17;;;0.70;;
66721;SDS011;53633;49.932;10.884;2023-04-03T10:37:00;3.20;;;0.68;;
66721;SDS011;53633;49.932;10.884;2023-04-03T10:39:35;4.28;;;0.70;;
66721;SDS011;53633;49.932;10.884;2023-04-03T10:42:12;4.53;;;0.88;;
66721;SDS011;53633;49.932;10.884;2023-04-03T10:44:50;3.13;;;0.65;;
66721;SDS011;53633;49.932;10.884;2023-04-03T10:47:27;2.83;;;0.60;;
66721;SDS011;53633;49.932;10.884;2023-04-03T10:50:01;3.40;;;0.70;;
66721;SDS011;53633;49.932;10.884;2023-04-03T10:52:47;3.13;;;0.60;;
66721;SDS011;53633;49.932;10.884;2023-04-03T10:55:21;3.13;;;0.60;;
66721;SDS011;53633;49.932;10.884;2023-04-03T10:57:58;4.18;;;1.00;;
66721;SDS011;53633;49.932;10.884;2023-04-03T11:00:29;3.60;;;0.85;;
66721;SDS011;53633;49.932;10.884;2023-04-03T11:03:01;4.78;;;0.90;;
66721;SDS011;53633;49.932;10.884;2023-04-03T11:05:31;4.53;;;0.80;;
66721;SDS011;53633;49.932;10.884;2023-04-03T11:08:04;4.43;;;0.80;;
66721;SDS011;53633;49.932;10.884;2023-04-03T11:10:37;3.70;;;0.77;;
66721;SDS011;53633;49.932;10.884;2023-04-03T11:13:11;2.90;;;0.70;;
66721;SDS011;53633;49.932;10.884;2023-04-03T11:15:40;4.13;;;0.90;;
66721;SDS011;53633;49.932;10.884;2023-04-03T11:18:09;4.07;;;0.80;;
66721;SDS011;53633;49.932;10.884;2023-04-03T11:20:40;5.22;;;1.00;;
66721;SDS011;53633;49.932;10.884;2023-04-03T11:23:12;2.85;;;0.70;;
66721;SDS011;53633;49.932;10.884;2023-04-03T11:25:45;6.32;;;0.95;;
66721;SDS011;53633;49.932;10.884;2023-04-03T11:28:15;5.05;;;0.50;;
66721;SDS011;53633;49.932;10.884;2023-04-03T11:30:44;2.70;;;0.70;;
66721;SDS011;53633;49.932;10.884;2023-04-03T11:33:24;2.75;;;0.90;;
66721;SDS011;53633;49.932;10.884;2023-04-03T11:36:02;3.00;;;0.93;;
66721;SDS011;53633;49.932;10.884;2023-04-03T11:38:51;3.08;;;0.70;;
66721;SDS011;53633;49.932;10.884;2023-04-03T11:41:25;3.63;;;0.73;;
66721;SDS011;53633;49.932;10.884;2023-04-03T11:43:58;4.80;;;0.85;;
66721;SDS011;53633;49.932;10.884;2023-04-03T11:55:42;3.45;;;0.90;;
66721;SDS011;53633;49.932;10.884;2023-04-03T11:58:20;3.60;;;0.90;;
66721;SDS011;53633;49.932;10.884;2023-04-03T12:00:48;4.65;;;1.00;;
66721;SDS011;53633;49.932;10.884;2023-04-03T12:03:31;5.43;;;1.00;;
66721;SDS011;53633;49.932;10.884;2023-04-03T12:09:22;3.03;;;0.70;;
66721;SDS011;53633;49.932;10.884;2023-04-03T12:11:51;3.30;;;0.88;;
66721;SDS011;53633;49.932;10.884;2023-04-03T12:14:18;2.38;;;0.80;;
66721;SDS011;53633;49.932;10.884;2023-04-03T12:16:49;4.05;;;1.00;;
66721;SDS011;53633;49.932;10.884;2023-04-03T12:19:36;4.80;;;1.10;;
66721;SDS011;53633;49.932;10.884;2023-04-03T12:22:12;4.45;;;0.90;;
66721;SDS011;53633;49.932;10.884;2023-04-03T12:24:40;4.32;;;0.75;;
66721;SDS011;53633;49.932;10.884;2023-04-03T12:27:24;3.13;;;0.88;;
66721;SDS011;53633;49.932;10.884;2023-04-03T12:30:19;4.27;;;1.03;;
66721;SDS011;53633;49.932;10.884;2023-04-03T12:32:54;9.35;;;2.40;;
66721;SDS011;53633;49.932;10.884;2023-04-03T12:35:43;3.10;;;0.85;;
66721;SDS011;53633;49.932;10.884;2023-04-03T12:41:18;4.75;;;1.02;;
66721;SDS011;53633;49.932;10.884;2023-04-03T12:46:42;2.65;;;0.70;;
66721;SDS011;53633;49.932;10.884;2023-04-03T12:49:14;3.42;;;0.73;;
66721;SDS011;53633;49.932;10.884;2023-04-03T12:51:57;4.65;;;1.00;;
66721;SDS011;53633;49.932;10.884;2023-04-03T12:54:26;4.80;;;0.90;;
66721;SDS011;53633;49.932;10.884;2023-04-03T12:57:08;3.60;;;0.70;;
66721;SDS011;53633;49.932;10.884;2023-04-03T12:59:36;4.88;;;0.80;;
66721;SDS011;53633;49.932;10.884;2023-04-03T13:02:03;3.83;;;0.63;;
66721;SDS011;53633;49.932;10.884;2023-04-03T13:04:45;7.95;;;1.08;;
66721;SDS011;53633;49.932;10.884;2023-04-03T13:07:20;4.32;;;0.75;;
66721;SDS011;53633;49.932;10.884;2023-04-03T13:09:55;3.45;;;0.98;;
66721;SDS011;53633;49.932;10.884;2023-04-03T13:12:22;5.88;;;0.80;;
66721;SDS011;53633;49.932;10.884;2023-04-03T13:14:52;5.32;;;1.20;;
66721;SDS011;53633;49.932;10.884;2023-04-03T13:17:20;5.82;;;1.08;;
66721;SDS011;53633;49.932;10.884;2023-04-03T13:19:48;4.20;;;1.00;;
66721;SDS011;53633;49.932;10.884;2023-04-03T13:22:20;3.80;;;0.80;;
66721;SDS011;53633;49.932;10.884;2023-04-03T13:24:53;6.38;;;0.65;;
66721;SDS011;53633;49.932;10.884;2023-04-03T13:27:23;4.53;;;0.90;;
66721;SDS011;53633;49.932;10.884;2023-04-03T13:29:50;4.50;;;0.90;;
66721;SDS011;53633;49.932;10.884;2023-04-03T13:32:18;2.50;;;0.68;;
66721;SDS011;53633;49.932;10.884;2023-04-03T13:34:48;4.07;;;1.00;;
66721;SDS011;53633;49.932;10.884;2023-04-03T13:37:21;2.95;;;0.70;;
66721;SDS011;53633;49.932;10.884;2023-04-03T13:39:56;4.22;;;0.63;;
66721;SDS011;53633;49.932;10.884;2023-04-03T13:42:25;4.18;;;0.60;;
66721;SDS011;53633;49.932;10.884;2023-04-03T13:45:08;4.35;;;0.60;;
66721;SDS011;53633;49.932;10.884;2023-04-03T13:47:42;4.72;;;0.77;;
66721;SDS011;53633;49.932;10.884;2023-04-03T13:50:14;3.03;;;0.77;;
66721;SDS011;53633;49.932;10.884;2023-04-03T13:52:46;4.18;;;0.57;;
66721;SDS011;53633;49.932;10.884;2023-04-03T13:55:16;2.70;;;0.50;;
66721;SDS011;53633;49.932;10.884;2023-04-03T13:58:03;3.90;;;0.75;;
66721;SDS011;53633;49.932;10.884;2023-04-03T14:00:48;6.97;;;0.95;;
66721;SDS011;53633;49.932;10.884;2023-04-03T14:03:18;5.47;;;0.80;;
66721;SDS011;53633;49.932;10.884;2023-04-03T14:05:47;3.10;;;0.50;;
66721;SDS011;53633;49.932;10.884;2023-04-03T14:08:15;5.07;;;0.60;;
66721;SDS011;53633;49.932;10.884;2023-04-03T14:10:41;5.28;;;0.95;;
66721;SDS011;53633;49.932;10.884;2023-04-03T14:13:09;2.88;;;0.55;;
66721;SDS011;53633;49.932;10.884;2023-04-03T14:15:37;3.65;;;0.63;;
66721;SDS011;53633;49.932;10.884;2023-04-03T14:18:05;3.28;;;0.45;;
66721;SDS011;53633;49.932;10.884;2023-04-03T14:20:33;3.28;;;0.50;;
66721;SDS011;53633;49.932;10.884;2023-04-03T14:22:59;2.05;;;0.35;;
66721;SDS011;53633;49.932;10.884;2023-04-03T14:25:28;4.35;;;0.60;;
66721;SDS011;53633;49.932;10.884;2023-04-03T14:27:54;2.92;;;0.40;;
66721;SDS011;53633;49.932;10.884;2023-04-03T14:30:22;2.38;;;0.50;;
66721;SDS011;53633;49.932;10.884;2023-04-03T14:32:50;4.05;;;0.60;;
66721;SDS011;53633;49.932;10.884;2023-04-03T14:35:17;3.10;;;0.30;;
66721;SDS011;53633;49.932;10.884;2023-04-03T14:37:45;2.58;;;0.57;;
66721;SDS011;53633;49.932;10.884;2023-04-03T14:40:13;3.72;;;0.70;;
66721;SDS011;53633;49.932;10.884;2023-04-03T14:42:44;2.92;;;0.55;;
66721;SDS011;53633;49.932;10.884;2023-04-03T14:45:11;2.55;;;0.40;;
66721;SDS011;53633;49.932;10.884;2023-04-03T14:47:40;2.05;;;0.50;;
66721;SDS011;53633;49.932;10.884;2023-04-03T14:50:12;3.03;;;0.68;;
66721;SDS011;53633;49.932;10.884;2023-04-03T14:52:42;4.05;;;0.50;;
66721;SDS011;53633;49.932;10.884;2023-04-03T14:55:11;4.43;;;0.50;;
66721;SDS011;53633;49.932;10.884;2023-04-03T14:57:40;3.88;;;0.40;;
66721;SDS011;53633;49.932;10.884;2023-04-03T15:00:10;3.83;;;0.30;;
66721;SDS011;53633;49.932;10.884;2023-04-03T15:02:39;5.60;;;0.60;;
66721;SDS011;53633;49.932;10.884;2023-04-03T15:05:07;3.40;;;0.50;;
66721;SDS011;53633;49.932;10.884;2023-04-03T15:07:36;3.13;;;0.77;;
66721;SDS011;53633;49.932;10.884;2023-04-03T15:10:09;3.38;;;0.40;;